SHT65A EGLL-EGJB
Flight info
| Callsign | SHT65A |
|---|---|
| Flight time | 0h 42m |
| Altitude | 23000 |
| Route | GASGU N866 SAM/N0392F220 N63 LELNA |
| Aircraft | A319/M-SDE3FGHIRWY/LB1 |
Departure
| Time | 2026-04-22 16:37 |
|---|---|
| Airport | London Heathrow Airport (EGLL) |
Arrival
| Time | 2026-04-22 17:19 |
|---|---|
| Airport | Guernsey Airport (EGJB) |
| Time | Latitude | Longitude | Altitude | Speed | Heading |
|---|---|---|---|---|---|
| 2026-04-22 16:08 | 51.47415 | -0.48953 | 90 ft | 0 kts | 180° |
| 2026-04-22 16:23 | 51.47417 | -0.48953 | 86 ft | 1 kts | 180° |
| 2026-04-22 16:23 | 51.47433 | -0.48953 | 90 ft | 3 kts | 180° |
| 2026-04-22 16:24 | 51.47453 | -0.48954 | 89 ft | 3 kts | 180° |
| 2026-04-22 16:24 | 51.47494 | -0.48954 | 89 ft | 3 kts | 180° |
| 2026-04-22 16:24 | 51.47505 | -0.48954 | 90 ft | 0 kts | 180° |
| 2026-04-22 16:29 | 51.47497 | -0.48948 | 89 ft | 3 kts | 150° |
| 2026-04-22 16:29 | 51.47485 | -0.48896 | 99 ft | 8 kts | 91° |
| 2026-04-22 16:30 | 51.47485 | -0.48814 | 88 ft | 13 kts | 90° |
| 2026-04-22 16:30 | 51.47487 | -0.48566 | 87 ft | 18 kts | 89° |
| 2026-04-22 16:30 | 51.47405 | -0.48475 | 86 ft | 17 kts | 180° |
| 2026-04-22 16:30 | 51.47289 | -0.48473 | 86 ft | 17 kts | 180° |
| 2026-04-22 16:31 | 51.47171 | -0.48476 | 86 ft | 17 kts | 180° |
| 2026-04-22 16:31 | 51.47054 | -0.48474 | 86 ft | 17 kts | 179° |
| 2026-04-22 16:31 | 51.46939 | -0.48472 | 86 ft | 17 kts | 180° |
| 2026-04-22 16:31 | 51.46845 | -0.48470 | 86 ft | 8 kts | 179° |
| 2026-04-22 16:32 | 51.46825 | -0.48469 | 86 ft | 0 kts | 179° |
| 2026-04-22 16:32 | 51.46803 | -0.48468 | 86 ft | 8 kts | 179° |
| 2026-04-22 16:33 | 51.46704 | -0.48469 | 86 ft | 18 kts | 180° |
| 2026-04-22 16:33 | 51.46613 | -0.48468 | 87 ft | 10 kts | 179° |
| 2026-04-22 16:33 | 51.46587 | -0.48468 | 87 ft | 0 kts | 179° |
| 2026-04-22 16:35 | 51.46571 | -0.48467 | 87 ft | 3 kts | 179° |
| 2026-04-22 16:35 | 51.46533 | -0.48465 | 87 ft | 9 kts | 179° |
| 2026-04-22 16:35 | 51.46476 | -0.48422 | 88 ft | 9 kts | 100° |
| 2026-04-22 16:35 | 51.46479 | -0.48364 | 87 ft | 0 kts | 89° |
| 2026-04-22 16:36 | 51.46480 | -0.48337 | 87 ft | 9 kts | 89° |
| 2026-04-22 16:36 | 51.46480 | -0.47929 | 87 ft | 69 kts | 90° |
| 2026-04-22 16:37 | 51.46483 | -0.46754 | 90 ft | 131 kts | 90° |
| 2026-04-22 16:37 | 51.46490 | -0.45231 | 589 ft | 141 kts | 89° |
| 2026-04-22 16:37 | 51.46508 | -0.43656 | 1300 ft | 150 kts | 88° |
| 2026-04-22 16:37 | 51.46488 | -0.41853 | 1817 ft | 176 kts | 99° |
| 2026-04-22 16:38 | 51.45842 | -0.39964 | 2387 ft | 206 kts | 122° |
| 2026-04-22 16:38 | 51.44960 | -0.37981 | 3091 ft | 229 kts | 122° |
| 2026-04-22 16:38 | 51.44031 | -0.35894 | 4174 ft | 236 kts | 124° |
| 2026-04-22 16:38 | 51.42867 | -0.33998 | 5307 ft | 245 kts | 142° |
| 2026-04-22 16:39 | 51.41275 | -0.32913 | 6417 ft | 256 kts | 165° |
| 2026-04-22 16:39 | 51.39463 | -0.32935 | 7471 ft | 268 kts | 188° |
| 2026-04-22 16:39 | 51.37738 | -0.34227 | 8512 ft | 283 kts | 213° |
| 2026-04-22 16:39 | 51.36249 | -0.36339 | 9581 ft | 288 kts | 218° |
| 2026-04-22 16:40 | 51.34759 | -0.38517 | 10560 ft | 294 kts | 218° |
| 2026-04-22 16:40 | 51.33220 | -0.40877 | 10974 ft | 318 kts | 217° |
| 2026-04-22 16:40 | 51.29004 | -0.42840 | 12092 ft | 329 kts | 177° |
| 2026-04-22 16:41 | 51.26710 | -0.43361 | 12859 ft | 341 kts | 195° |
| 2026-04-22 16:41 | 51.24604 | -0.45200 | 13678 ft | 353 kts | 217° |
| 2026-04-22 16:41 | 51.23040 | -0.48288 | 14454 ft | 366 kts | 238° |
| 2026-04-22 16:41 | 51.21881 | -0.51926 | 15227 ft | 370 kts | 242° |
| 2026-04-22 16:42 | 51.20731 | -0.55618 | 16022 ft | 371 kts | 242° |
| 2026-04-22 16:42 | 51.19592 | -0.59279 | 16738 ft | 376 kts | 242° |
| 2026-04-22 16:42 | 51.18418 | -0.63038 | 17432 ft | 381 kts | 243° |
| 2026-04-22 16:42 | 51.17226 | -0.66830 | 18202 ft | 384 kts | 243° |
| 2026-04-22 16:43 | 51.16019 | -0.70641 | 18913 ft | 387 kts | 244° |
| 2026-04-22 16:43 | 51.14799 | -0.74488 | 19548 ft | 391 kts | 244° |
| 2026-04-22 16:43 | 51.13565 | -0.78372 | 20211 ft | 394 kts | 245° |
| 2026-04-22 16:43 | 51.12326 | -0.82269 | 20922 ft | 395 kts | 245° |
| 2026-04-22 16:44 | 51.11076 | -0.86200 | 21561 ft | 399 kts | 246° |
| 2026-04-22 16:44 | 51.09816 | -0.90153 | 22176 ft | 403 kts | 245° |
| 2026-04-22 16:44 | 51.08540 | -0.94144 | 22814 ft | 405 kts | 246° |
| 2026-04-22 16:44 | 51.07256 | -0.98149 | 23197 ft | 406 kts | 244° |
| 2026-04-22 16:45 | 51.05975 | -1.02144 | 23292 ft | 405 kts | 245° |
| 2026-04-22 16:45 | 51.04715 | -1.06072 | 23293 ft | 403 kts | 244° |
| 2026-04-22 16:45 | 51.03439 | -1.10041 | 23294 ft | 403 kts | 245° |
| 2026-04-22 16:45 | 51.02164 | -1.14002 | 23296 ft | 403 kts | 246° |
| 2026-04-22 16:46 | 51.00886 | -1.17967 | 23295 ft | 403 kts | 246° |
| 2026-04-22 16:46 | 50.99604 | -1.21927 | 23300 ft | 403 kts | 246° |
| 2026-04-22 16:46 | 50.98322 | -1.25878 | 23300 ft | 403 kts | 246° |
| 2026-04-22 16:46 | 50.96958 | -1.29776 | 23299 ft | 405 kts | 239° |
| 2026-04-22 16:47 | 50.95195 | -1.33271 | 23305 ft | 408 kts | 227° |
| 2026-04-22 16:47 | 50.93037 | -1.36204 | 23305 ft | 411 kts | 217° |
| 2026-04-22 16:47 | 50.91423 | -1.37786 | 23298 ft | 413 kts | 210° |
| 2026-04-22 16:47 | 50.87984 | -1.40532 | 23302 ft | 413 kts | 208° |
| 2026-04-22 16:48 | 50.85457 | -1.42544 | 23299 ft | 409 kts | 208° |
| 2026-04-22 16:48 | 50.82925 | -1.44560 | 23295 ft | 407 kts | 208° |
| 2026-04-22 16:48 | 50.80407 | -1.46565 | 23290 ft | 405 kts | 207° |
| 2026-04-22 16:48 | 50.77858 | -1.48594 | 23285 ft | 404 kts | 208° |
| 2026-04-22 16:49 | 50.75372 | -1.50570 | 23268 ft | 405 kts | 207° |
| 2026-04-22 16:49 | 50.72857 | -1.52565 | 23267 ft | 405 kts | 208° |
| 2026-04-22 16:49 | 50.70342 | -1.54554 | 23270 ft | 404 kts | 208° |
| 2026-04-22 16:49 | 50.67829 | -1.56541 | 23267 ft | 404 kts | 208° |
| 2026-04-22 16:50 | 50.65312 | -1.58532 | 23267 ft | 405 kts | 208° |
| 2026-04-22 16:50 | 50.62795 | -1.60522 | 23262 ft | 404 kts | 207° |
| 2026-04-22 16:50 | 50.60281 | -1.62501 | 23249 ft | 404 kts | 208° |
| 2026-04-22 16:50 | 50.57766 | -1.64480 | 23244 ft | 405 kts | 207° |
| 2026-04-22 16:51 | 50.55248 | -1.66460 | 23242 ft | 405 kts | 207° |
| 2026-04-22 16:51 | 50.52729 | -1.68439 | 23243 ft | 405 kts | 208° |
| 2026-04-22 16:51 | 50.50212 | -1.70414 | 23244 ft | 405 kts | 208° |
| 2026-04-22 16:51 | 50.47691 | -1.72390 | 23174 ft | 402 kts | 207° |
| 2026-04-22 16:52 | 50.45194 | -1.74342 | 22707 ft | 398 kts | 207° |
| 2026-04-22 16:52 | 50.42754 | -1.76246 | 22167 ft | 395 kts | 208° |
| 2026-04-22 16:52 | 50.40298 | -1.78163 | 21612 ft | 393 kts | 207° |
| 2026-04-22 16:52 | 50.37865 | -1.80056 | 21093 ft | 389 kts | 207° |
| 2026-04-22 16:53 | 50.35454 | -1.81931 | 20555 ft | 385 kts | 207° |
| 2026-04-22 16:53 | 50.33064 | -1.83794 | 20009 ft | 383 kts | 207° |
| 2026-04-22 16:53 | 50.30689 | -1.85642 | 19534 ft | 377 kts | 206° |
| 2026-04-22 16:53 | 50.28360 | -1.87450 | 19049 ft | 372 kts | 206° |
| 2026-04-22 16:54 | 50.26060 | -1.89258 | 18528 ft | 368 kts | 207° |
| 2026-04-22 16:54 | 50.23780 | -1.91047 | 17934 ft | 365 kts | 206° |
| 2026-04-22 16:54 | 50.21510 | -1.92801 | 17334 ft | 362 kts | 206° |
| 2026-04-22 16:54 | 50.19261 | -1.94527 | 16751 ft | 359 kts | 205° |
| 2026-04-22 16:55 | 50.17028 | -1.96236 | 16184 ft | 356 kts | 205° |
| 2026-04-22 16:55 | 50.14817 | -1.97930 | 15623 ft | 353 kts | 205° |
| 2026-04-22 16:55 | 50.12612 | -1.99622 | 15292 ft | 352 kts | 205° |
| 2026-04-22 16:55 | 50.10421 | -2.01306 | 15220 ft | 352 kts | 205° |
| 2026-04-22 16:56 | 50.08221 | -2.02997 | 15228 ft | 353 kts | 205° |
| 2026-04-22 16:56 | 50.06017 | -2.04688 | 15155 ft | 351 kts | 205° |
| 2026-04-22 16:56 | 50.03839 | -2.06355 | 14625 ft | 348 kts | 205° |
| 2026-04-22 16:56 | 50.01671 | -2.08014 | 14089 ft | 346 kts | 205° |
| 2026-04-22 16:57 | 49.99541 | -2.09731 | 13497 ft | 345 kts | 210° |
| 2026-04-22 16:57 | 49.97616 | -2.11945 | 12936 ft | 343 kts | 219° |
| 2026-04-22 16:57 | 49.95979 | -2.14621 | 12390 ft | 341 kts | 227° |
| 2026-04-22 16:57 | 49.94420 | -2.17379 | 11807 ft | 339 kts | 226° |
| 2026-04-22 16:58 | 49.93389 | -2.19189 | 11439 ft | 338 kts | 225° |
| 2026-04-22 16:58 | 49.91310 | -2.22818 | 10716 ft | 335 kts | 224° |
| 2026-04-22 16:58 | 49.89762 | -2.25509 | 10193 ft | 332 kts | 226° |
| 2026-04-22 16:58 | 49.88272 | -2.28101 | 10019 ft | 319 kts | 224° |
| 2026-04-22 16:59 | 49.86829 | -2.30613 | 9891 ft | 305 kts | 224° |
| 2026-04-22 16:59 | 49.85442 | -2.33030 | 9745 ft | 295 kts | 223° |
| 2026-04-22 16:59 | 49.84084 | -2.35388 | 9619 ft | 292 kts | 225° |
| 2026-04-22 16:59 | 49.82736 | -2.37729 | 9485 ft | 291 kts | 224° |
| 2026-04-22 17:00 | 49.81824 | -2.39310 | 9396 ft | 291 kts | 224° |
| 2026-04-22 17:00 | 49.79133 | -2.43972 | 9134 ft | 290 kts | 224° |
| 2026-04-22 17:00 | 49.77807 | -2.46268 | 9006 ft | 290 kts | 225° |
| 2026-04-22 17:01 | 49.76466 | -2.48588 | 8877 ft | 289 kts | 223° |
| 2026-04-22 17:01 | 49.75121 | -2.50909 | 8743 ft | 289 kts | 222° |
| 2026-04-22 17:01 | 49.73777 | -2.53221 | 8611 ft | 289 kts | 224° |
| 2026-04-22 17:01 | 49.72435 | -2.55530 | 8483 ft | 288 kts | 223° |
| 2026-04-22 17:02 | 49.71061 | -2.57785 | 8363 ft | 287 kts | 222° |
| 2026-04-22 17:02 | 49.69639 | -2.59930 | 8232 ft | 287 kts | 219° |
| 2026-04-22 17:02 | 49.68222 | -2.62085 | 8083 ft | 286 kts | 219° |
| 2026-04-22 17:02 | 49.66821 | -2.64280 | 7953 ft | 286 kts | 222° |
| 2026-04-22 17:03 | 49.65414 | -2.66446 | 7824 ft | 286 kts | 220° |
| 2026-04-22 17:03 | 49.64000 | -2.68590 | 7700 ft | 284 kts | 220° |
| 2026-04-22 17:03 | 49.62591 | -2.70723 | 7579 ft | 284 kts | 221° |
| 2026-04-22 17:03 | 49.61199 | -2.72868 | 7379 ft | 282 kts | 219° |
| 2026-04-22 17:04 | 49.59828 | -2.75043 | 6996 ft | 282 kts | 223° |
| 2026-04-22 17:04 | 49.58461 | -2.77191 | 6636 ft | 281 kts | 220° |
| 2026-04-22 17:04 | 49.57112 | -2.79289 | 6282 ft | 278 kts | 220° |
| 2026-04-22 17:04 | 49.55760 | -2.81399 | 5959 ft | 275 kts | 219° |
| 2026-04-22 17:05 | 49.54443 | -2.83504 | 5436 ft | 271 kts | 220° |
| 2026-04-22 17:05 | 49.53160 | -2.85596 | 4918 ft | 266 kts | 220° |
| 2026-04-22 17:05 | 49.51908 | -2.87607 | 4665 ft | 251 kts | 219° |
| 2026-04-22 17:05 | 49.50659 | -2.89256 | 4533 ft | 222 kts | 199° |
| 2026-04-22 17:06 | 49.49240 | -2.89633 | 4409 ft | 200 kts | 168° |
| 2026-04-22 17:06 | 49.47927 | -2.89189 | 4280 ft | 187 kts | 161° |
| 2026-04-22 17:06 | 49.46714 | -2.88680 | 4137 ft | 173 kts | 160° |
| 2026-04-22 17:06 | 49.45579 | -2.88212 | 3850 ft | 166 kts | 160° |
| 2026-04-22 17:07 | 49.44481 | -2.87699 | 3525 ft | 161 kts | 149° |
| 2026-04-22 17:07 | 49.43583 | -2.86682 | 3442 ft | 161 kts | 130° |
| 2026-04-22 17:07 | 49.43009 | -2.85255 | 3324 ft | 159 kts | 112° |
| 2026-04-22 17:07 | 49.42821 | -2.83638 | 3156 ft | 151 kts | 93° |
| 2026-04-22 17:08 | 49.42866 | -2.82067 | 2978 ft | 145 kts | 91° |
| 2026-04-22 17:08 | 49.42912 | -2.80534 | 2784 ft | 142 kts | 91° |
| 2026-04-22 17:08 | 49.42956 | -2.79020 | 2595 ft | 141 kts | 91° |
| 2026-04-22 17:08 | 49.43000 | -2.77533 | 2407 ft | 138 kts | 90° |
| 2026-04-22 17:09 | 49.43043 | -2.76071 | 2222 ft | 137 kts | 90° |
| 2026-04-22 17:09 | 49.43085 | -2.74621 | 2040 ft | 135 kts | 91° |
| 2026-04-22 17:09 | 49.43126 | -2.73192 | 1857 ft | 133 kts | 90° |
| 2026-04-22 17:09 | 49.43166 | -2.71844 | 1686 ft | 119 kts | 90° |
| 2026-04-22 17:10 | 49.43202 | -2.70601 | 1522 ft | 115 kts | 88° |
| 2026-04-22 17:10 | 49.43236 | -2.69392 | 1373 ft | 112 kts | 87° |
| 2026-04-22 17:10 | 49.43270 | -2.68191 | 1254 ft | 112 kts | 87° |
| 2026-04-22 17:10 | 49.43296 | -2.67004 | 1056 ft | 114 kts | 85° |
| 2026-04-22 17:11 | 49.43333 | -2.65799 | 961 ft | 112 kts | 84° |
| 2026-04-22 17:11 | 49.43367 | -2.64614 | 788 ft | 112 kts | 85° |
| 2026-04-22 17:11 | 49.43404 | -2.63406 | 640 ft | 112 kts | 85° |
| 2026-04-22 17:11 | 49.43436 | -2.62203 | 464 ft | 112 kts | 86° |
| 2026-04-22 17:12 | 49.43471 | -2.61026 | 329 ft | 109 kts | 83° |
| 2026-04-22 17:12 | 49.43501 | -2.59884 | 468 ft | 118 kts | 86° |
| 2026-04-22 17:12 | 49.43541 | -2.58595 | 1199 ft | 122 kts | 86° |
| 2026-04-22 17:12 | 49.43586 | -2.57249 | 1822 ft | 133 kts | 88° |
| 2026-04-22 17:13 | 49.43501 | -2.55677 | 1967 ft | 160 kts | 111° |
| 2026-04-22 17:13 | 49.42668 | -2.54479 | 1965 ft | 176 kts | 150° |
| 2026-04-22 17:13 | 49.41388 | -2.54468 | 1969 ft | 199 kts | 189° |
| 2026-04-22 17:13 | 49.40123 | -2.55416 | 1970 ft | 208 kts | 206° |
| 2026-04-22 17:14 | 49.39218 | -2.57224 | 1978 ft | 224 kts | 245° |
| 2026-04-22 17:14 | 49.38893 | -2.59551 | 1989 ft | 227 kts | 259° |
| 2026-04-22 17:14 | 49.38689 | -2.61952 | 1987 ft | 226 kts | 261° |
| 2026-04-22 17:14 | 49.38489 | -2.64344 | 1982 ft | 226 kts | 260° |
| 2026-04-22 17:15 | 49.38355 | -2.65961 | 1984 ft | 226 kts | 261° |
| 2026-04-22 17:15 | 49.38121 | -2.69146 | 1986 ft | 227 kts | 262° |
| 2026-04-22 17:15 | 49.38398 | -2.71511 | 1976 ft | 227 kts | 298° |
| 2026-04-22 17:15 | 49.39414 | -2.73175 | 1986 ft | 202 kts | 333° |
| 2026-04-22 17:16 | 49.40631 | -2.73838 | 1864 ft | 176 kts | 6° |
| 2026-04-22 17:16 | 49.41728 | -2.73564 | 1765 ft | 144 kts | 34° |
| 2026-04-22 17:16 | 49.42474 | -2.72836 | 1695 ft | 116 kts | 53° |
| 2026-04-22 17:16 | 49.42937 | -2.71913 | 1609 ft | 108 kts | 69° |
| 2026-04-22 17:17 | 49.43177 | -2.70827 | 1507 ft | 108 kts | 84° |
| 2026-04-22 17:17 | 49.43226 | -2.69659 | 1387 ft | 111 kts | 88° |
| 2026-04-22 17:17 | 49.43259 | -2.68474 | 1254 ft | 111 kts | 89° |
| 2026-04-22 17:17 | 49.43292 | -2.67291 | 1103 ft | 112 kts | 87° |
| 2026-04-22 17:18 | 49.43332 | -2.66081 | 1004 ft | 113 kts | 88° |
| 2026-04-22 17:18 | 49.43360 | -2.64884 | 831 ft | 113 kts | 86° |
| 2026-04-22 17:18 | 49.43394 | -2.63686 | 655 ft | 110 kts | 86° |
| 2026-04-22 17:18 | 49.43430 | -2.62496 | 518 ft | 114 kts | 89° |
| 2026-04-22 17:19 | 49.43495 | -2.60276 | 337 ft | 75 kts | 87° |
| 2026-04-22 17:19 | 49.43521 | -2.59297 | 349 ft | 23 kts | 88° |
| 2026-04-22 17:20 | 49.43373 | -2.59293 | 345 ft | 17 kts | 271° |
| 2026-04-22 17:20 | 49.43362 | -2.59651 | 345 ft | 15 kts | 268° |
| 2026-04-22 17:21 | 49.43324 | -2.59754 | 345 ft | 11 kts | 170° |
| 2026-04-22 17:21 | 49.43284 | -2.59748 | 345 ft | 0 kts | 178° |